Time;durP1;ratioP1;P1;durP2;ratioP2;P2;SDS_P1;SDS_P2;PMS_P1;PMS_P2;Temp;Humidity;BMP_temperature;BMP_pressure;BME280_temperature;BME280_humidity;BME280_pressure;Samples;Min_cycle;Max_cycle;Signal;HPM_P1;HPM_P2
2024/02/08 00:01:12;;;;;;;0.80;0.80;;;10.70;99.90;;;;;;10420481;28;20202;-78
2024/02/08 00:06:16;;;;;;;0.60;0.60;;;10.80;99.90;;;;;;10435301;28;20894;-78
2024/02/08 00:11:18;;;;;;;0.80;0.80;;;10.70;99.90;;;;;;10395874;28;20186;-80
2024/02/08 00:16:20;;;;;;;0.60;0.60;;;10.80;99.90;;;;;;10410410;28;20734;-78
2024/02/08 00:21:24;;;;;;;0.60;0.60;;;10.80;99.90;;;;;;10425036;28;20206;-78
2024/02/08 00:26:27;;;;;;;0.60;0.60;;;10.90;99.90;;;;;;10425058;28;20234;-78
2024/02/08 00:31:29;;;;;;;0.60;0.60;;;10.90;99.90;;;;;;10426393;28;20669;-80
2024/02/08 00:36:33;;;;;;;0.50;0.50;;;10.90;99.90;;;;;;10426001;28;20230;-78
2024/02/08 00:41:36;;;;;;;0.80;0.80;;;10.90;99.90;;;;;;10425525;28;20199;-80
2024/02/08 00:46:38;;;;;;;0.50;0.50;;;10.90;99.90;;;;;;10427665;28;20252;-78
2024/02/08 00:51:42;;;;;;;0.60;0.60;;;10.90;99.90;;;;;;10425638;28;20363;-77
2024/02/08 00:56:44;;;;;;;0.60;0.60;;;10.90;99.90;;;;;;10418219;28;20206;-78
2024/02/08 01:01:47;;;;;;;0.60;0.60;;;11.00;99.90;;;;;;10423302;28;20655;-80
2024/02/08 01:06:51;;;;;;;0.60;0.60;;;11.00;99.90;;;;;;10420609;28;20230;-80
2024/02/08 01:11:53;;;;;;;0.60;0.60;;;11.00;99.90;;;;;;10419134;28;20208;-78
2024/02/08 01:16:55;;;;;;;0.50;0.50;;;11.00;99.90;;;;;;10420148;28;20264;-78
2024/02/08 01:21:59;;;;;;;0.70;0.70;;;11.10;99.90;;;;;;10417781;28;20279;-79
2024/02/08 01:27:04;;;;;;;0.60;0.60;;;11.10;99.90;;;;;;10417595;28;20222;-79
2024/02/08 01:32:06;;;;;;;0.60;0.60;;;11.00;99.90;;;;;;10418150;28;20208;-79
2024/02/08 01:37:10;;;;;;;0.50;0.50;;;11.00;99.90;;;;;;10417740;28;20627;-79
2024/02/08 01:42:13;;;;;;;0.60;0.60;;;11.00;99.90;;;;;;10411427;28;20190;-80
2024/02/08 01:47:17;;;;;;;0.60;0.60;;;11.10;99.90;;;;;;10413646;28;20221;-79
2024/02/08 01:52:21;;;;;;;0.60;0.60;;;11.10;99.90;;;;;;10399308;28;20214;-79
2024/02/08 01:57:24;;;;;;;0.60;0.60;;;11.10;99.90;;;;;;10414929;28;20221;-79
2024/02/08 02:02:35;;;;;;;0.60;0.60;;;11.20;99.90;;;;;;10392793;28;20294;-79
2024/02/08 02:07:39;;;;;;;0.60;0.60;;;11.20;99.90;;;;;;10414931;28;20249;-78
2024/02/08 02:12:42;;;;;;;0.60;0.60;;;11.20;99.90;;;;;;10412588;28;20831;-78
2024/02/08 02:17:45;;;;;;;0.50;0.50;;;11.10;99.90;;;;;;10418950;28;20213;-78
2024/02/08 02:22:49;;;;;;;0.50;0.50;;;11.20;99.90;;;;;;10443211;28;20221;-78
2024/02/08 02:27:53;;;;;;;0.60;0.60;;;11.10;99.90;;;;;;10427581;28;20217;-79
2024/02/08 02:32:59;;;;;;;0.60;0.60;;;11.20;99.90;;;;;;10422971;28;20607;-79
2024/02/08 02:38:04;;;;;;;0.60;0.60;;;11.20;99.90;;;;;;10423177;28;20264;-79
2024/02/08 02:43:09;;;;;;;0.50;0.50;;;11.10;99.90;;;;;;10420953;28;20222;-79
2024/02/08 02:48:12;;;;;;;0.50;0.50;;;11.10;99.90;;;;;;10443423;28;20258;-78
2024/02/08 02:53:17;;;;;;;0.50;0.50;;;11.20;99.90;;;;;;10460966;28;20236;-78
2024/02/08 02:58:19;;;;;;;0.50;0.50;;;11.20;99.90;;;;;;10462155;28;20221;-78
2024/02/08 03:03:22;;;;;;;0.60;0.60;;;11.20;99.90;;;;;;10426853;28;20224;-78
2024/02/08 03:08:26;;;;;;;0.50;0.50;;;11.10;99.90;;;;;;10440295;28;20508;-78
2024/02/08 03:13:34;;;;;;;0.50;0.50;;;11.20;99.90;;;;;;10428377;28;20622;-78
2024/02/08 03:18:43;;;;;;;0.50;0.50;;;11.10;99.90;;;;;;10414128;28;20217;-79
2024/02/08 03:23:48;;;;;;;0.70;0.70;;;11.10;99.90;;;;;;10419120;28;20222;-79
2024/02/08 03:28:51;;;;;;;0.60;0.60;;;11.20;99.90;;;;;;10415546;28;20222;-80
2024/02/08 03:33:54;;;;;;;0.60;0.60;;;11.20;99.90;;;;;;10426377;28;20197;-79
2024/02/08 03:39:03;;;;;;;0.60;0.60;;;11.20;99.90;;;;;;10453404;28;20217;-79
2024/02/08 03:44:06;;;;;;;0.50;0.50;;;11.20;99.90;;;;;;10448372;28;20225;-80
2024/02/08 03:49:09;;;;;;;0.80;0.80;;;11.20;99.90;;;;;;10451893;28;20225;-79
2024/02/08 03:54:16;;;;;;;0.60;0.60;;;11.20;99.90;;;;;;10456045;28;20251;-79
2024/02/08 03:59:26;;;;;;;0.70;0.70;;;11.30;99.90;;;;;;10453468;28;20210;-78
2024/02/08 04:04:34;;;;;;;0.90;0.90;;;11.30;99.90;;;;;;10444004;28;20221;-79
2024/02/08 04:09:39;;;;;;;0.77;0.77;;;11.30;99.90;;;;;;10431072;28;20198;-78
2024/02/08 04:57:44;;;;;;;0.83;0.83;;;11.30;99.90;;;;;;10323386;28;20222;-79
2024/02/08 05:02:49;;;;;;;0.80;0.80;;;11.30;99.90;;;;;;10420278;28;20676;-79
2024/02/08 05:07:52;;;;;;;1.00;1.00;;;11.30;99.90;;;;;;10419313;28;20293;-79
2024/02/08 05:12:56;;;;;;;1.10;1.10;;;11.30;99.90;;;;;;10398858;28;20205;-80
2024/02/08 05:17:58;;;;;;;1.10;1.10;;;11.30;99.90;;;;;;10419347;28;20276;-80
2024/02/08 05:23:02;;;;;;;1.40;1.40;;;11.30;99.90;;;;;;10423722;28;20194;-79
2024/02/08 05:28:06;;;;;;;1.50;1.50;;;11.20;99.90;;;;;;10371475;28;20641;-80
2024/02/08 05:33:12;;;;;;;1.83;1.83;;;11.00;99.90;;;;;;10421258;28;20194;-79
2024/02/08 05:38:15;;;;;;;2.20;2.20;;;10.90;99.90;;;;;;10414737;28;20225;-79
2024/02/08 05:43:23;;;;;;;2.80;2.80;;;10.80;99.90;;;;;;10405153;28;20214;-80
2024/02/08 05:48:33;;;;;;;3.60;3.60;;;10.80;99.90;;;;;;10417402;28;20225;-80
2024/02/08 05:53:40;;;;;;;3.30;3.30;;;10.60;99.90;;;;;;10421088;28;20198;-80
2024/02/08 05:58:44;;;;;;;3.07;3.07;;;10.60;99.90;;;;;;10400060;28;20206;-78
2024/02/08 06:03:47;;;;;;;4.47;4.47;;;10.60;99.90;;;;;;10393403;28;20273;-80
2024/02/08 06:08:56;;;;;;;5.93;5.93;;;10.50;99.90;;;;;;10394026;28;20715;-79
2024/02/08 06:13:59;;;;;;;5.50;5.50;;;10.60;99.90;;;;;;10416268;28;20209;-79
2024/02/08 06:19:05;;;;;;;5.60;5.60;;;10.50;99.90;;;;;;10416531;28;20226;-79
2024/02/08 06:29:42;;;;;;;4.63;4.63;;;10.40;99.90;;;;;;10422134;28;20193;-79
2024/02/08 06:34:47;;;;;;;6.30;6.30;;;10.40;99.90;;;;;;10396697;28;20213;-79
2024/02/08 06:39:55;;;;;;;6.10;6.10;;;10.30;99.90;;;;;;10421396;28;20260;-79
2024/02/08 07:38:53;;;;;;;2.77;2.77;;;10.40;99.90;;;;;;10430265;28;20267;-79
2024/02/08 07:43:45;;;;;;;3.00;3.00;;;10.40;99.90;;;;;;10440689;28;20197;-78
2024/02/08 07:48:58;;;;;;;3.23;3.23;;;10.40;99.90;;;;;;10465790;28;20209;-79
2024/02/08 07:54:10;;;;;;;5.90;5.90;;;10.40;99.90;;;;;;10438540;28;20182;-78
2024/02/08 07:59:15;;;;;;;3.80;3.80;;;10.50;99.90;;;;;;10418566;28;20201;-79
2024/02/08 08:09:36;;;;;;;5.30;5.30;;;10.50;99.90;;;;;;10377075;28;20201;-79
2024/02/08 08:15:13;;;;;;;5.50;5.50;;;10.60;99.90;;;;;;10417621;28;20213;-77
2024/02/08 08:20:56;;;;;;;5.60;5.60;;;10.60;99.90;;;;;;10418274;28;20241;-78
2024/02/08 08:31:16;;;;;;;5.90;5.90;;;10.70;99.90;;;;;;10449649;28;20197;-80
2024/02/08 08:36:28;;;;;;;5.67;5.67;;;10.70;99.90;;;;;;10416419;28;20221;-78
2024/02/08 08:41:31;;;;;;;4.30;4.30;;;10.80;99.90;;;;;;10434555;28;20627;-79
2024/02/08 08:46:34;;;;;;;4.67;4.67;;;10.90;99.90;;;;;;10441125;28;20272;-77
2024/02/08 08:51:37;;;;;;;4.60;4.60;;;10.90;99.90;;;;;;10418063;28;20493;-78
2024/02/08 08:56:40;;;;;;;4.00;4.00;;;11.00;99.90;;;;;;10438696;28;20214;-78
2024/02/08 09:01:42;;;;;;;3.90;3.90;;;11.10;99.90;;;;;;10419036;28;20198;-79
2024/02/08 09:06:47;;;;;;;3.90;3.90;;;11.20;99.90;;;;;;10437467;28;20710;-79
2024/02/08 09:11:57;;;;;;;3.43;3.43;;;11.30;99.90;;;;;;10416826;28;20583;-80
2024/02/08 09:17:02;;;;;;;3.83;3.83;;;11.50;99.90;;;;;;10438200;28;20210;-78
2024/02/08 09:22:06;;;;;;;3.20;3.20;;;11.60;99.90;;;;;;10412899;28;20454;-79
2024/02/08 09:27:16;;;;;;;3.03;3.03;;;11.70;99.90;;;;;;10405049;28;20470;-78
2024/02/08 09:32:43;;;;;;;3.00;3.00;;;11.80;99.90;;;;;;10396711;28;20686;-79
2024/02/08 09:37:46;;;;;;;2.40;2.40;;;11.90;99.90;;;;;;10436175;28;20267;-78
2024/02/08 09:42:55;;;;;;;2.50;2.50;;;11.90;99.90;;;;;;10414282;28;20193;-78
2024/02/08 09:48:00;;;;;;;1.70;1.70;;;12.10;99.90;;;;;;10437680;28;20222;-78
2024/02/08 09:53:15;;;;;;;1.70;1.70;;;12.10;99.90;;;;;;10395807;28;20252;-81
2024/02/08 09:58:31;;;;;;;1.40;1.40;;;12.20;99.90;;;;;;10420233;28;20244;-78
2024/02/08 10:03:34;;;;;;;1.20;1.20;;;12.30;99.90;;;;;;10417406;28;20197;-77
2024/02/08 10:08:50;;;;;;;0.90;0.90;;;12.30;99.90;;;;;;10418870;28;20233;-79
2024/02/08 10:13:56;;;;;;;1.23;1.23;;;12.40;99.90;;;;;;10386719;28;20205;-77
2024/02/08 10:19:02;;;;;;;0.90;0.90;;;12.50;99.90;;;;;;10434934;28;20267;-77
2024/02/08 10:24:25;;;;;;;1.10;1.10;;;12.50;99.90;;;;;;10409913;28;20198;-77
2024/02/08 10:29:31;;;;;;;0.87;0.87;;;12.60;99.90;;;;;;10402275;28;20373;-78
2024/02/08 10:34:39;;;;;;;0.67;0.67;;;12.60;99.90;;;;;;10404115;28;20224;-78
2024/02/08 10:39:57;;;;;;;1.00;1.00;;;12.60;99.90;;;;;;10389211;28;20683;-78
2024/02/08 10:45:05;;;;;;;0.70;0.70;;;12.70;99.90;;;;;;10391706;28;20609;-79
2024/02/08 10:50:19;;;;;;;0.70;0.70;;;12.60;99.90;;;;;;10378096;28;20202;-79
2024/02/08 10:55:30;;;;;;;0.77;0.77;;;12.60;99.90;;;;;;10377790;28;20214;-78
2024/02/08 11:01:12;;;;;;;1.00;1.00;;;12.40;99.90;;;;;;10392706;28;20198;-80
2024/02/08 11:06:28;;;;;;;1.10;1.10;;;12.20;99.90;;;;;;10393851;28;20222;-80
2024/02/08 11:11:33;;;;;;;1.13;1.13;;;12.10;99.90;;;;;;10377888;28;20198;-79
2024/02/08 11:16:37;;;;;;;0.60;0.60;;;12.10;99.90;;;;;;10399366;28;20227;-81
2024/02/08 11:21:43;;;;;;;1.10;1.10;;;12.10;99.90;;;;;;10381250;28;20198;-77
2024/02/08 11:26:56;;;;;;;1.00;1.00;;;12.10;99.90;;;;;;10395220;28;20339;-80
2024/02/08 11:31:59;;;;;;;0.60;0.60;;;12.10;99.90;;;;;;10399387;28;20194;-79
2024/02/08 11:37:15;;;;;;;0.80;0.80;;;12.20;99.90;;;;;;10384833;28;20218;-78
2024/02/08 11:42:22;;;;;;;0.60;0.60;;;12.30;99.90;;;;;;10443172;28;20207;-78
2024/02/08 11:47:25;;;;;;;0.60;0.60;;;12.40;99.90;;;;;;10413853;28;20720;-79
2024/02/08 11:52:28;;;;;;;0.43;0.43;;;12.50;99.90;;;;;;10419522;28;20598;-79
2024/02/08 11:57:36;;;;;;;0.60;0.60;;;12.60;99.90;;;;;;10443942;28;20213;-79
2024/02/08 12:02:39;;;;;;;0.60;0.60;;;12.70;99.90;;;;;;10397467;28;20225;-78
2024/02/08 12:07:45;;;;;;;0.50;0.50;;;12.80;99.90;;;;;;10384370;28;20226;-76
2024/02/08 12:12:53;;;;;;;0.60;0.60;;;12.90;99.90;;;;;;10443250;28;20200;-78
2024/02/08 12:18:05;;;;;;;0.40;0.40;;;12.90;99.90;;;;;;10421872;28;20233;-80
2024/02/08 12:23:07;;;;;;;0.50;0.50;;;13.00;99.90;;;;;;10445866;28;20255;-80
2024/02/08 12:28:12;;;;;;;0.60;0.60;;;13.10;99.90;;;;;;10421939;28;20724;-80
2024/02/08 12:33:14;;;;;;;0.50;0.50;;;13.20;99.90;;;;;;10449683;28;20201;-78
2024/02/08 12:38:17;;;;;;;0.50;0.50;;;13.30;99.90;;;;;;10422516;28;20221;-78
2024/02/08 12:43:21;;;;;;;0.30;0.30;;;13.40;99.90;;;;;;10432575;28;20197;-77
2024/02/08 12:48:27;;;;;;;0.10;0.10;;;13.40;99.90;;;;;;10422237;28;20225;-79
2024/02/08 12:53:31;;;;;;;0.40;0.40;;;13.40;99.90;;;;;;10450833;28;20697;-79
2024/02/08 12:58:34;;;;;;;0.30;0.30;;;13.40;99.90;;;;;;10420772;28;21081;-79
2024/02/08 13:03:38;;;;;;;0.40;0.40;;;13.40;99.90;;;;;;10408184;28;20207;-79
2024/02/08 13:08:44;;;;;;;0.20;0.20;;;13.40;99.90;;;;;;10408822;28;20691;-78
2024/02/08 13:13:49;;;;;;;0.50;0.50;;;13.40;99.90;;;;;;10420695;28;20209;-78
2024/02/08 13:18:54;;;;;;;0.40;0.40;;;13.40;99.90;;;;;;10421085;28;20350;-78
2024/02/08 13:23:56;;;;;;;0.30;0.30;;;13.40;99.90;;;;;;10411252;28;20695;-80
2024/02/08 13:29:00;;;;;;;0.00;0.00;;;13.50;99.90;;;;;;10408775;28;20315;-79
2024/02/08 13:34:03;;;;;;;0.40;0.40;;;13.50;99.90;;;;;;10400363;28;20213;-78
2024/02/08 13:39:11;;;;;;;0.40;0.40;;;13.50;99.90;;;;;;10405886;28;20695;-79
2024/02/08 13:44:16;;;;;;;0.50;0.50;;;13.60;99.90;;;;;;10412524;28;20202;-79
2024/02/08 13:49:21;;;;;;;0.50;0.50;;;13.60;99.90;;;;;;10414952;28;20605;-78
2024/02/08 13:54:23;;;;;;;0.40;0.40;;;13.70;99.90;;;;;;10412701;28;20686;-78
2024/02/08 13:59:29;;;;;;;0.43;0.43;;;13.70;99.90;;;;;;10409160;28;20683;-79
2024/02/08 14:04:31;;;;;;;0.50;0.50;;;13.80;99.90;;;;;;10409348;28;20219;-81
2024/02/08 14:09:40;;;;;;;0.50;0.50;;;13.80;99.90;;;;;;10413300;28;20222;-79
2024/02/08 14:14:44;;;;;;;0.50;0.50;;;13.80;99.90;;;;;;10416506;28;20218;-79
2024/02/08 14:19:47;;;;;;;0.40;0.40;;;13.80;99.90;;;;;;10412174;28;20205;-81
2024/02/08 14:24:51;;;;;;;0.40;0.40;;;13.80;99.90;;;;;;10400904;28;20218;-80
2024/02/08 14:29:55;;;;;;;0.40;0.40;;;13.80;99.90;;;;;;10412839;28;20217;-79
2024/02/08 14:34:58;;;;;;;0.70;0.70;;;13.80;99.90;;;;;;10418527;28;20230;-81
2024/02/08 14:40:00;;;;;;;0.70;0.70;;;13.80;99.90;;;;;;10412841;28;20186;-79
2024/02/08 14:45:11;;;;;;;0.70;0.70;;;13.70;99.90;;;;;;10400395;28;20221;-80
2024/02/08 14:50:48;;;;;;;0.70;0.70;;;13.60;99.90;;;;;;10411335;28;20276;-79
2024/02/08 14:55:45;;;;;;;0.60;0.60;;;13.60;99.90;;;;;;10415721;28;20208;-79
2024/02/08 15:00:57;;;;;;;0.50;0.50;;;13.60;99.90;;;;;;10391375;28;20210;-81
2024/02/08 15:06:00;;;;;;;0.70;0.70;;;13.60;99.90;;;;;;10409110;28;20568;-79
2024/02/08 15:11:08;;;;;;;0.60;0.60;;;13.60;99.90;;;;;;10407925;28;20638;-79
2024/02/08 15:16:12;;;;;;;0.50;0.50;;;13.60;99.90;;;;;;10408018;28;20690;-77
2024/02/08 15:21:23;;;;;;;0.60;0.60;;;13.50;99.90;;;;;;10414852;28;20193;-78
2024/02/08 15:26:26;;;;;;;0.27;0.27;;;13.50;99.90;;;;;;10426279;28;20893;-78
2024/02/08 15:31:45;;;;;;;0.30;0.30;;;13.50;99.90;;;;;;10416222;28;20223;-77
2024/02/08 15:36:50;;;;;;;0.40;0.40;;;13.40;99.90;;;;;;10424750;28;20251;-78
2024/02/08 15:41:55;;;;;;;0.50;0.50;;;13.40;99.90;;;;;;10381208;28;20193;-79
2024/02/08 15:46:58;;;;;;;0.40;0.40;;;13.40;99.90;;;;;;10393754;28;20218;-77
2024/02/08 15:52:07;;;;;;;0.60;0.60;;;13.40;99.90;;;;;;10386924;28;20237;-77
2024/02/08 15:57:11;;;;;;;0.60;0.60;;;13.40;99.90;;;;;;10390089;28;20261;-76
2024/02/08 16:02:15;;;;;;;0.50;0.50;;;13.50;99.90;;;;;;10401308;28;20201;-76
2024/02/08 16:07:18;;;;;;;0.60;0.60;;;13.40;99.90;;;;;;10337737;28;1820187;-77
2024/02/08 16:12:34;;;;;;;0.40;0.40;;;13.40;99.90;;;;;;10404753;28;20198;-78
2024/02/08 16:17:39;;;;;;;0.40;0.40;;;13.40;99.90;;;;;;10405594;28;20212;-78
2024/02/08 16:22:54;;;;;;;0.40;0.40;;;13.40;99.90;;;;;;10408311;28;20198;-77
2024/02/08 16:28:02;;;;;;;0.43;0.43;;;13.30;99.90;;;;;;10406159;28;20676;-77
2024/02/08 16:33:09;;;;;;;0.40;0.40;;;13.30;99.90;;;;;;10410876;28;20204;-77
2024/02/08 16:38:16;;;;;;;0.50;0.50;;;13.30;99.90;;;;;;10402452;28;20206;-78
2024/02/08 16:43:27;;;;;;;0.50;0.50;;;13.30;99.90;;;;;;10412577;28;20210;-77
2024/02/08 16:48:35;;;;;;;0.60;0.60;;;13.30;99.90;;;;;;10411372;28;20233;-78
2024/02/08 16:53:40;;;;;;;0.50;0.50;;;13.20;99.90;;;;;;10420714;28;20198;-79
2024/02/08 16:58:50;;;;;;;0.50;0.50;;;13.20;99.90;;;;;;10415497;28;20213;-78
2024/02/08 17:04:15;;;;;;;0.40;0.40;;;13.20;99.90;;;;;;10403440;28;20830;-78
2024/02/08 17:09:24;;;;;;;0.60;0.60;;;13.20;99.90;;;;;;10391658;28;20236;-78
2024/02/08 17:14:46;;;;;;;0.60;0.60;;;13.20;99.90;;;;;;10401460;28;20761;-79
2024/02/08 17:19:57;;;;;;;0.60;0.60;;;13.20;99.90;;;;;;10400065;28;20245;-78
2024/02/08 17:25:23;;;;;;;0.40;0.40;;;13.20;99.90;;;;;;10397618;28;20221;-77
2024/02/08 17:30:51;;;;;;;0.30;0.30;;;13.20;99.90;;;;;;10427449;28;20225;-76
2024/02/08 17:35:50;;;;;;;0.50;0.50;;;13.30;99.90;;;;;;10394324;28;20217;-78
2024/02/08 17:40:52;;;;;;;0.60;0.60;;;13.20;99.90;;;;;;10435842;28;20198;-77
2024/02/08 17:46:02;;;;;;;0.60;0.60;;;13.20;99.90;;;;;;10414151;28;20264;-77
2024/02/08 17:51:11;;;;;;;0.40;0.40;;;13.20;99.90;;;;;;10435748;28;20655;-79
2024/02/08 17:56:17;;;;;;;0.40;0.40;;;13.30;99.90;;;;;;10412768;28;20268;-79
2024/02/08 18:01:31;;;;;;;0.40;0.40;;;13.20;99.90;;;;;;10434040;28;20244;-79
2024/02/08 18:06:36;;;;;;;0.50;0.50;;;13.20;99.90;;;;;;10411222;28;20647;-79
2024/02/08 18:11:40;;;;;;;0.50;0.50;;;13.20;99.90;;;;;;10432703;28;20729;-78
2024/02/08 18:16:45;;;;;;;0.47;0.47;;;13.20;99.90;;;;;;10393597;28;20797;-77
2024/02/08 18:21:51;;;;;;;0.60;0.60;;;13.20;99.90;;;;;;10435358;28;20198;-79
2024/02/08 18:26:55;;;;;;;0.50;0.50;;;13.20;99.90;;;;;;10425102;28;20222;-80
2024/02/08 18:31:57;;;;;;;0.60;0.60;;;13.10;99.90;;;;;;10464526;28;20182;-80
2024/02/08 18:37:01;;;;;;;0.50;0.50;;;13.10;99.90;;;;;;10462874;28;20258;-81
2024/02/08 18:42:06;;;;;;;0.50;0.50;;;13.10;99.90;;;;;;10502098;28;20269;-80
2024/02/08 18:47:11;;;;;;;0.40;0.40;;;13.10;99.90;;;;;;10483190;28;20250;-80
2024/02/08 18:52:18;;;;;;;0.50;0.50;;;13.10;99.90;;;;;;10464272;28;20241;-80
2024/02/08 18:57:22;;;;;;;0.47;0.47;;;13.00;99.90;;;;;;10465941;28;20308;-79
2024/02/08 19:02:25;;;;;;;0.60;0.60;;;13.00;99.90;;;;;;10449071;28;20202;-79
2024/02/08 19:07:32;;;;;;;0.20;0.20;;;12.90;99.90;;;;;;10410746;28;20222;-78
2024/02/08 19:12:36;;;;;;;0.50;0.50;;;12.90;99.90;;;;;;10399276;28;20197;-80
2024/02/08 19:17:40;;;;;;;0.60;0.60;;;12.90;99.90;;;;;;10408097;28;20221;-79
2024/02/08 19:22:45;;;;;;;0.57;0.57;;;12.90;99.90;;;;;;10422779;28;20198;-78
2024/02/08 19:27:48;;;;;;;0.50;0.50;;;12.80;99.90;;;;;;10412506;28;20279;-79
2024/02/08 19:32:50;;;;;;;0.50;0.50;;;12.80;99.90;;;;;;10437510;28;20198;-80
2024/02/08 19:37:54;;;;;;;0.57;0.57;;;12.80;99.90;;;;;;10437042;28;20218;-79
2024/02/08 19:42:57;;;;;;;0.43;0.43;;;12.80;99.90;;;;;;10409578;28;20212;-80
2024/02/08 19:48:00;;;;;;;0.50;0.50;;;12.80;99.90;;;;;;10436137;28;20711;-79
2024/02/08 19:53:06;;;;;;;0.60;0.60;;;12.80;99.90;;;;;;10425660;28;20205;-79
2024/02/08 19:58:08;;;;;;;0.60;0.60;;;12.70;99.90;;;;;;10416912;28;20210;-79
2024/02/08 20:03:20;;;;;;;0.50;0.50;;;12.70;99.90;;;;;;10423661;28;20204;-80
2024/02/08 20:08:29;;;;;;;0.50;0.50;;;12.70;99.90;;;;;;10415240;28;20653;-77
2024/02/08 20:13:31;;;;;;;0.60;0.60;;;12.70;99.90;;;;;;10427839;28;20621;-78
2024/02/08 20:18:37;;;;;;;0.50;0.50;;;12.70;99.90;;;;;;10416281;28;20246;-79
2024/02/08 20:23:40;;;;;;;0.50;0.50;;;12.70;99.90;;;;;;10384357;28;20206;-78
2024/02/08 20:28:43;;;;;;;0.47;0.47;;;12.70;99.90;;;;;;10381907;28;20230;-77
2024/02/08 20:33:46;;;;;;;0.50;0.50;;;12.70;99.90;;;;;;10401637;28;20263;-77
2024/02/08 20:38:53;;;;;;;0.63;0.63;;;12.70;99.90;;;;;;10430259;28;20214;-77
2024/02/08 20:44:05;;;;;;;0.30;0.30;;;12.70;99.90;;;;;;10398953;28;20663;-78
2024/02/08 20:49:08;;;;;;;0.60;0.60;;;12.60;99.90;;;;;;10416583;28;20221;-78
2024/02/08 20:54:12;;;;;;;0.50;0.50;;;12.60;99.90;;;;;;10398100;28;20198;-79
2024/02/08 20:59:17;;;;;;;0.60;0.60;;;12.60;99.90;;;;;;10396961;28;20626;-79
2024/02/08 21:04:20;;;;;;;0.60;0.60;;;12.60;99.90;;;;;;10399451;28;20259;-79
2024/02/08 21:09:26;;;;;;;0.60;0.60;;;12.60;99.90;;;;;;10400987;28;20566;-77
2024/02/08 21:14:29;;;;;;;0.63;0.63;;;12.60;99.90;;;;;;10402160;28;20213;-77
2024/02/08 21:19:33;;;;;;;0.60;0.60;;;12.50;99.90;;;;;;10405534;28;20205;-79
2024/02/08 21:24:36;;;;;;;0.60;0.60;;;12.50;99.90;;;;;;10422989;28;20295;-78
2024/02/08 21:29:40;;;;;;;0.60;0.60;;;12.50;99.90;;;;;;10416413;28;20218;-78
2024/02/08 21:34:42;;;;;;;0.40;0.40;;;12.50;99.90;;;;;;10416851;28;20615;-79
2024/02/08 21:39:49;;;;;;;0.50;0.50;;;12.50;99.90;;;;;;10416692;28;20217;-78
2024/02/08 21:44:52;;;;;;;0.50;0.50;;;12.50;99.90;;;;;;10416497;28;20222;-79
2024/02/08 21:49:55;;;;;;;0.43;0.43;;;12.50;99.90;;;;;;10399249;28;20352;-79
2024/02/08 21:54:58;;;;;;;0.40;0.40;;;12.40;99.90;;;;;;10416049;28;20756;-78
2024/02/08 22:00:01;;;;;;;0.40;0.40;;;12.40;99.90;;;;;;10416432;28;20194;-80
2024/02/08 22:05:09;;;;;;;0.50;0.50;;;12.40;99.90;;;;;;10415766;28;20226;-79
2024/02/08 22:10:14;;;;;;;0.40;0.40;;;12.40;99.90;;;;;;10414878;28;20245;-79
2024/02/08 22:15:19;;;;;;;0.40;0.40;;;12.40;99.90;;;;;;10411180;28;20697;-78
2024/02/08 22:20:22;;;;;;;0.40;0.40;;;12.40;99.90;;;;;;10415149;28;20607;-79
2024/02/08 22:25:26;;;;;;;0.43;0.43;;;12.40;99.90;;;;;;10413361;28;20228;-77
2024/02/08 22:30:28;;;;;;;0.40;0.40;;;12.40;99.90;;;;;;10412650;28;20222;-79
2024/02/08 22:35:31;;;;;;;0.40;0.40;;;12.30;99.90;;;;;;10410304;28;20226;-78
2024/02/08 22:40:35;;;;;;;0.40;0.40;;;12.40;99.90;;;;;;10410064;28;20205;-79
2024/02/08 22:45:38;;;;;;;0.40;0.40;;;12.40;99.90;;;;;;10411195;28;20608;-77
2024/02/08 22:50:40;;;;;;;0.40;0.40;;;12.50;99.90;;;;;;10409912;28;20225;-78
2024/02/08 22:55:44;;;;;;;0.40;0.40;;;12.50;99.90;;;;;;10391464;28;20637;-78
2024/02/08 23:00:49;;;;;;;0.50;0.50;;;12.50;99.90;;;;;;10409269;28;20198;-79
2024/02/08 23:05:57;;;;;;;0.40;0.40;;;12.50;99.90;;;;;;10408353;28;20256;-78
2024/02/08 23:11:00;;;;;;;0.47;0.47;;;12.50;99.90;;;;;;10409281;28;20225;-78
2024/02/08 23:16:04;;;;;;;0.50;0.50;;;12.40;99.90;;;;;;10409855;28;20276;-77
2024/02/08 23:21:06;;;;;;;0.50;0.50;;;12.30;99.90;;;;;;10410040;28;20646;-79
2024/02/08 23:26:10;;;;;;;0.50;0.50;;;12.30;99.90;;;;;;10409797;28;20222;-77
2024/02/08 23:31:17;;;;;;;0.40;0.40;;;12.30;99.90;;;;;;10399956;28;20636;-79
2024/02/08 23:36:19;;;;;;;0.40;0.40;;;12.30;99.90;;;;;;10401222;28;20225;-78
2024/02/08 23:41:25;;;;;;;0.50;0.50;;;12.30;99.90;;;;;;10400760;28;20656;-79
2024/02/08 23:46:28;;;;;;;0.50;0.50;;;12.30;99.90;;;;;;10384878;28;20634;-78
2024/02/08 23:51:30;;;;;;;0.40;0.40;;;12.30;99.90;;;;;;10414353;28;20218;-77
2024/02/08 23:56:36;;;;;;;0.50;0.50;;;12.30;99.90;;;;;;10413179;28;20225;-77
